Terminal Aerodrome Forecast
Issued by NWS

Home | Current Version | Previous Version | Text Only | Print | Product List | Glossary On
Versions: 1 2 3 4 5 6 7 8 9 10 11 12 13 14 15 16 17
000
FTUS41 KBOX 281023 AAD
TAFFMH
TAF AMD
KFMH 281023Z 2810/2906 04008KT P6SM OVC015
     FM281500 05011G23KT 6SM -DZ BR OVC008
     FM290100 04011G20KT 5SM -DZ BR OVC005
     FM290500 04013KT P6SM -DZ OVC003=

USA.gov is the U.S. government's official web portal to all federal, state and local government web resources and services.